Time;durP1;ratioP1;P1;durP2;ratioP2;P2;SDS_P1;SDS_P2;PMS_P1;PMS_P2;Temp;Humidity;BMP_temperature;BMP_pressure;BME280_temperature;BME280_humidity;BME280_pressure;Samples;Min_cycle;Max_cycle;Signal;HPM_P1;HPM_P2
2022/12/09 00:02:07;;;;;;;14.40;9.68;;;7.40;99.90;;;;;;5073018;28;20025;-79
2022/12/09 00:04:33;;;;;;;12.50;8.68;;;7.50;99.90;;;;;;5089048;28;20097;-79
2022/12/09 00:06:59;;;;;;;14.63;9.20;;;7.40;99.90;;;;;;5070931;28;20047;-79
2022/12/09 00:09:24;;;;;;;14.43;9.82;;;7.50;99.90;;;;;;5063744;28;20028;-79
2022/12/09 00:11:51;;;;;;;14.93;9.20;;;7.50;99.90;;;;;;5072882;28;20137;-79
2022/12/09 00:14:17;;;;;;;13.43;9.75;;;7.50;99.90;;;;;;5073168;28;20048;-79
2022/12/09 00:16:43;;;;;;;14.55;9.13;;;7.50;99.90;;;;;;5088439;28;20025;-79
2022/12/09 00:19:09;;;;;;;13.98;9.65;;;7.60;99.90;;;;;;5071655;28;20031;-78
2022/12/09 00:21:35;;;;;;;13.43;9.63;;;7.50;99.90;;;;;;5073244;28;20070;-79
2022/12/09 00:24:04;;;;;;;13.80;9.65;;;7.60;99.90;;;;;;5073611;28;20028;-79
2022/12/09 00:26:31;;;;;;;14.50;10.07;;;7.50;99.90;;;;;;5072604;28;20048;-79
2022/12/09 00:28:56;;;;;;;15.23;9.32;;;7.50;99.90;;;;;;5072959;28;20021;-79
2022/12/09 00:31:26;;;;;;;15.57;9.48;;;7.50;99.90;;;;;;5072546;28;20532;-79
2022/12/09 00:33:55;;;;;;;13.70;9.40;;;7.50;99.90;;;;;;5083461;28;20027;-79
2022/12/09 00:36:22;;;;;;;16.67;10.32;;;7.60;99.90;;;;;;5092978;28;20035;-79
2022/12/09 00:38:48;;;;;;;15.35;9.52;;;7.60;99.90;;;;;;5092892;28;20047;-79
2022/12/09 00:41:14;;;;;;;15.02;9.98;;;7.50;99.90;;;;;;5092581;28;20412;-79
2022/12/09 00:43:41;;;;;;;15.20;9.32;;;7.50;99.90;;;;;;5075423;28;20102;-79
2022/12/09 00:46:07;;;;;;;16.58;9.85;;;7.60;99.90;;;;;;5087599;28;20031;-79
2022/12/09 00:48:33;;;;;;;13.50;8.88;;;7.50;99.90;;;;;;5072985;28;20485;-79
2022/12/09 00:51:00;;;;;;;15.52;9.10;;;7.60;99.90;;;;;;5072083;28;20652;-79
2022/12/09 00:53:26;;;;;;;15.52;9.45;;;7.50;99.90;;;;;;5072475;28;20104;-79
2022/12/09 00:55:52;;;;;;;15.50;9.48;;;7.50;99.90;;;;;;5072352;28;20111;-79
2022/12/09 00:58:18;;;;;;;15.40;10.00;;;7.50;99.90;;;;;;5072114;28;20124;-79
2022/12/09 01:00:44;;;;;;;16.27;9.02;;;7.50;99.90;;;;;;5071576;28;20540;-79
2022/12/09 01:03:16;;;;;;;14.43;9.32;;;7.50;99.90;;;;;;5071286;28;20025;-79
2022/12/09 01:05:42;;;;;;;14.40;8.88;;;7.60;99.90;;;;;;5071849;28;20060;-79
2022/12/09 01:08:09;;;;;;;15.10;9.73;;;7.50;99.90;;;;;;5062399;28;20224;-79
2022/12/09 01:10:36;;;;;;;15.90;9.38;;;7.60;99.90;;;;;;5072596;28;20024;-79
2022/12/09 01:13:02;;;;;;;12.00;8.98;;;7.50;99.90;;;;;;5071969;28;20032;-79
2022/12/09 01:15:29;;;;;;;14.30;9.10;;;7.50;99.90;;;;;;5071721;28;20032;-79
2022/12/09 01:17:55;;;;;;;17.90;9.35;;;7.40;99.90;;;;;;5072277;28;20028;-79
2022/12/09 01:20:21;;;;;;;13.00;8.80;;;7.50;99.90;;;;;;5071900;28;20029;-79
2022/12/09 01:22:47;;;;;;;16.88;9.40;;;7.50;99.90;;;;;;5072260;28;20024;-79
2022/12/09 01:25:13;;;;;;;12.57;8.90;;;7.50;99.90;;;;;;5087069;28;20028;-79
2022/12/09 01:27:39;;;;;;;15.55;8.65;;;7.50;99.90;;;;;;5071570;28;20085;-79
2022/12/09 01:30:06;;;;;;;16.73;10.20;;;7.50;99.90;;;;;;5071446;28;20024;-79
2022/12/09 01:32:32;;;;;;;15.73;9.30;;;7.40;99.90;;;;;;5071790;28;20032;-79
2022/12/09 01:34:58;;;;;;;13.95;8.88;;;7.50;99.90;;;;;;5070523;28;20028;-79
2022/12/09 01:37:24;;;;;;;18.73;9.63;;;7.50;99.90;;;;;;5071673;28;20054;-79
2022/12/09 01:39:50;;;;;;;14.95;9.32;;;7.40;99.90;;;;;;5072017;28;20108;-79
2022/12/09 01:42:20;;;;;;;19.77;10.15;;;7.40;99.90;;;;;;5070605;28;20489;-79
2022/12/09 01:45:20;;;;;;;16.75;9.10;;;7.40;99.90;;;;;;5070883;28;20036;-79
2022/12/09 01:48:07;;;;;;;15.60;8.90;;;7.40;99.90;;;;;;5066467;28;20033;-79
2022/12/09 01:50:34;;;;;;;14.60;9.07;;;7.50;99.90;;;;;;5081622;28;20074;-79
2022/12/09 01:53:00;;;;;;;13.43;8.35;;;7.50;99.90;;;;;;5091440;28;20097;-79
2022/12/09 01:55:26;;;;;;;15.48;9.35;;;7.40;99.90;;;;;;5090981;28;20505;-79
2022/12/09 01:57:52;;;;;;;14.18;9.18;;;7.30;99.90;;;;;;5091903;28;20485;-79
2022/12/09 02:00:19;;;;;;;15.02;9.80;;;7.30;99.90;;;;;;5091089;28;20028;-79
2022/12/09 02:02:47;;;;;;;16.48;10.15;;;7.20;99.90;;;;;;5091701;28;20024;-79
2022/12/09 02:05:14;;;;;;;15.73;9.80;;;7.20;99.90;;;;;;5091526;28;20028;-79
2022/12/09 02:07:40;;;;;;;17.98;10.40;;;7.30;99.90;;;;;;5084858;28;20048;-79
2022/12/09 02:10:11;;;;;;;11.93;8.48;;;7.40;99.90;;;;;;5071277;28;20071;-79
2022/12/09 02:12:59;;;;;;;16.30;10.05;;;7.40;99.90;;;;;;5070443;28;20035;-79
2022/12/09 02:15:51;;;;;;;17.75;9.63;;;7.40;99.90;;;;;;5086172;28;20067;-79
2022/12/09 02:18:37;;;;;;;17.48;10.18;;;7.50;99.90;;;;;;5070707;28;20027;-79
2022/12/09 02:21:19;;;;;;;19.35;10.52;;;7.50;99.90;;;;;;5070926;28;20032;-79
2022/12/09 02:23:52;;;;;;;19.45;10.93;;;7.40;99.90;;;;;;5071065;28;20017;-79
2022/12/09 02:26:28;;;;;;;18.30;11.25;;;7.20;99.90;;;;;;5070437;28;20063;-79
2022/12/09 02:29:10;;;;;;;16.20;10.93;;;7.30;99.90;;;;;;5070603;28;20028;-79
2022/12/09 02:32:21;;;;;;;19.77;10.77;;;7.30;99.90;;;;;;5070426;28;20029;-79
2022/12/09 02:34:56;;;;;;;17.88;9.75;;;7.30;99.90;;;;;;5028072;28;20033;-79
2022/12/09 02:37:30;;;;;;;15.02;9.23;;;7.30;99.90;;;;;;5028361;28;20026;-79
2022/12/09 02:40:06;;;;;;;19.90;10.80;;;7.30;99.90;;;;;;5028655;28;20036;-79
2022/12/09 02:42:35;;;;;;;21.92;11.32;;;7.30;99.90;;;;;;5044360;28;20017;-79
2022/12/09 02:45:05;;;;;;;17.77;10.80;;;7.30;99.90;;;;;;5027828;28;20038;-79
2022/12/09 02:47:35;;;;;;;18.55;10.90;;;7.30;99.90;;;;;;5028260;28;20105;-79
2022/12/09 02:50:08;;;;;;;20.75;11.57;;;7.40;99.90;;;;;;5028121;28;20072;-79
2022/12/09 02:52:35;;;;;;;16.88;10.75;;;7.40;99.90;;;;;;5029050;28;20061;-79
2022/12/09 02:55:05;;;;;;;20.35;11.57;;;7.50;99.90;;;;;;5026664;28;20062;-79
2022/12/09 02:57:33;;;;;;;17.20;10.73;;;7.50;99.90;;;;;;5044044;28;20049;-79
2022/12/09 02:59:58;;;;;;;16.27;9.88;;;7.60;99.90;;;;;;5027929;28;20061;-79
2022/12/09 03:02:31;;;;;;;16.05;10.13;;;7.60;99.90;;;;;;5028093;28;20056;-79
2022/12/09 03:05:18;;;;;;;18.30;10.68;;;7.50;99.90;;;;;;5027904;28;20056;-79
2022/12/09 03:08:05;;;;;;;20.35;11.60;;;7.50;99.90;;;;;;5027969;28;20033;-79
2022/12/09 03:11:01;;;;;;;18.30;10.57;;;7.50;99.90;;;;;;5024367;28;20105;-79
2022/12/09 03:13:46;;;;;;;16.85;9.80;;;7.60;99.90;;;;;;4985056;28;20034;-79
2022/12/09 03:16:38;;;;;;;16.67;10.77;;;7.60;99.90;;;;;;4988393;28;20048;-79
2022/12/09 03:19:06;;;;;;;;;;;7.60;99.90;;;;;;4972373;28;20386;-79
2022/12/09 03:21:34;;;;;;;17.52;10.18;;;7.60;99.90;;;;;;4988398;28;19905;-79
2022/12/09 03:24:01;;;;;;;18.80;9.88;;;7.50;99.90;;;;;;4988309;28;20053;-79
2022/12/09 03:26:30;;;;;;;15.85;9.82;;;7.60;99.90;;;;;;4988397;28;20054;-79
2022/12/09 03:28:58;;;;;;;15.68;10.00;;;7.60;99.90;;;;;;4988140;28;20050;-79
2022/12/09 03:31:28;;;;;;;16.52;9.75;;;7.60;99.90;;;;;;4988622;28;20038;-79
2022/12/09 03:33:57;;;;;;;15.05;10.18;;;7.60;99.90;;;;;;4977680;28;20042;-79
2022/12/09 03:36:25;;;;;;;16.67;10.10;;;7.60;99.90;;;;;;4968792;28;20085;-79
2022/12/09 03:38:52;;;;;;;17.08;9.95;;;7.60;99.90;;;;;;4968773;28;20121;-79
2022/12/09 03:41:17;;;;;;;15.63;10.60;;;7.60;99.90;;;;;;4981991;28;20022;-79
2022/12/09 03:43:50;;;;;;;18.95;9.90;;;7.60;99.90;;;;;;4985495;28;20500;-80
2022/12/09 03:46:17;;;;;;;17.35;10.90;;;7.60;99.90;;;;;;4987976;28;20033;-79
2022/12/09 03:48:42;;;;;;;17.55;10.25;;;7.70;99.90;;;;;;4959409;28;20035;-79
2022/12/09 03:51:26;;;;;;;17.52;10.15;;;7.70;99.90;;;;;;5047816;28;20037;-79
2022/12/09 03:54:19;;;;;;;18.58;10.48;;;7.70;99.90;;;;;;5069315;28;20017;-79
2022/12/09 03:56:50;;;;;;;14.48;9.55;;;7.70;99.90;;;;;;5069718;28;20020;-79
2022/12/09 03:59:17;;;;;;;18.77;10.93;;;7.70;99.90;;;;;;5069746;28;20017;-79
2022/12/09 04:01:44;;;;;;;17.10;10.07;;;7.70;99.90;;;;;;5069541;28;20021;-79
2022/12/09 04:04:11;;;;;;;14.57;9.25;;;7.70;99.90;;;;;;5069877;28;20031;-79
2022/12/09 04:06:36;;;;;;;17.67;9.95;;;7.70;99.90;;;;;;5070059;28;20032;-79
2022/12/09 04:09:03;;;;;;;17.23;10.20;;;7.70;99.90;;;;;;5061214;28;20629;-79
2022/12/09 04:11:31;;;;;;;16.45;10.30;;;7.70;99.90;;;;;;5074045;28;20032;-79
2022/12/09 04:13:57;;;;;;;18.00;10.93;;;7.60;99.90;;;;;;5086374;28;20052;-79
2022/12/09 04:16:22;;;;;;;16.95;10.57;;;7.70;99.90;;;;;;5073560;28;20516;-79
2022/12/09 04:18:48;;;;;;;16.52;10.80;;;7.70;99.90;;;;;;5073738;28;20385;-79
2022/12/09 04:21:14;;;;;;;18.80;10.57;;;7.70;99.90;;;;;;5073868;28;20551;-79
2022/12/09 04:23:40;;;;;;;17.42;9.65;;;7.70;99.90;;;;;;5073529;28;20634;-79
2022/12/09 04:26:05;;;;;;;16.27;10.00;;;7.70;99.90;;;;;;5073365;28;20532;-79
2022/12/09 04:28:31;;;;;;;15.18;10.32;;;7.80;99.90;;;;;;5073650;28;20017;-79
2022/12/09 04:30:58;;;;;;;15.73;10.00;;;7.80;99.90;;;;;;5071868;28;20507;-79
2022/12/09 04:33:24;;;;;;;15.90;9.85;;;7.70;99.90;;;;;;5073502;28;20035;-79
2022/12/09 04:35:50;;;;;;;16.27;10.27;;;7.70;99.90;;;;;;5073688;28;20032;-79
2022/12/09 04:38:16;;;;;;;14.48;9.68;;;7.70;99.90;;;;;;5073277;28;20079;-79
2022/12/09 04:40:42;;;;;;;17.92;10.75;;;7.70;99.90;;;;;;5073232;28;20490;-79
2022/12/09 04:43:08;;;;;;;15.70;9.85;;;7.50;99.90;;;;;;5077945;28;20063;-79
2022/12/09 04:45:33;;;;;;;15.43;10.52;;;7.60;99.90;;;;;;5072804;28;20506;-79
2022/12/09 04:47:59;;;;;;;16.00;10.25;;;7.60;99.90;;;;;;5066140;28;20489;-79
2022/12/09 04:50:25;;;;;;;16.00;9.98;;;7.60;99.90;;;;;;5082642;28;20067;-79
2022/12/09 04:52:51;;;;;;;15.15;9.40;;;7.60;99.90;;;;;;5072726;28;20501;-79
2022/12/09 04:55:17;;;;;;;16.88;9.77;;;7.70;99.90;;;;;;5072895;28;20110;-79
2022/12/09 04:57:42;;;;;;;15.52;9.50;;;7.70;99.90;;;;;;5071422;28;20529;-79
2022/12/09 05:00:09;;;;;;;17.40;10.65;;;7.70;99.90;;;;;;5072747;28;20024;-79
2022/12/09 05:02:35;;;;;;;16.88;10.63;;;7.60;99.90;;;;;;5073016;28;20040;-79
2022/12/09 05:05:01;;;;;;;14.23;9.65;;;7.60;99.90;;;;;;5071042;28;20489;-79
2022/12/09 05:07:28;;;;;;;16.88;10.77;;;7.60;99.90;;;;;;5067999;28;20505;-79
2022/12/09 05:09:54;;;;;;;16.00;10.18;;;7.50;99.90;;;;;;5066907;28;20076;-79
2022/12/09 05:12:19;;;;;;;17.67;10.55;;;7.40;99.90;;;;;;5072726;28;20161;-79
2022/12/09 05:14:45;;;;;;;17.48;10.57;;;7.40;99.90;;;;;;5073204;28;20517;-79
2022/12/09 05:17:11;;;;;;;21.40;11.38;;;7.30;99.90;;;;;;5085091;28;20066;-79
2022/12/09 05:19:36;;;;;;;19.17;10.95;;;7.40;99.90;;;;;;5072072;28;20536;-79
2022/12/09 05:22:02;;;;;;;15.10;10.07;;;7.50;99.90;;;;;;5072474;28;20087;-79
2022/12/09 05:24:28;;;;;;;17.23;10.40;;;7.50;99.90;;;;;;5072412;28;20557;-79
2022/12/09 05:26:53;;;;;;;17.08;10.63;;;7.50;99.90;;;;;;5072269;28;20052;-79
2022/12/09 05:29:19;;;;;;;16.23;9.90;;;7.40;99.90;;;;;;5072499;28;20438;-80
2022/12/09 05:31:46;;;;;;;17.92;10.32;;;7.40;99.90;;;;;;5070723;28;20029;-80
2022/12/09 05:34:12;;;;;;;14.98;9.30;;;7.50;99.90;;;;;;5071962;28;20108;-79
2022/12/09 05:36:38;;;;;;;19.40;11.27;;;7.50;99.90;;;;;;5070732;28;20051;-79
2022/12/09 05:39:03;;;;;;;16.17;10.10;;;7.50;99.90;;;;;;5070759;28;20021;-79
2022/12/09 05:41:29;;;;;;;18.50;10.50;;;7.40;99.90;;;;;;5071691;28;20516;-79
2022/12/09 05:43:55;;;;;;;14.38;9.77;;;7.40;99.90;;;;;;5076560;28;20063;-79
2022/12/09 05:46:21;;;;;;;16.55;10.52;;;7.40;99.90;;;;;;5085076;28;20028;-79
2022/12/09 05:48:47;;;;;;;17.70;9.68;;;7.40;99.90;;;;;;5058274;28;20032;-79
2022/12/09 05:51:24;;;;;;;15.85;9.68;;;7.40;99.90;;;;;;5070649;28;20025;-79
2022/12/09 05:53:51;;;;;;;15.60;9.85;;;7.40;99.90;;;;;;5071720;28;20028;-79
2022/12/09 05:56:18;;;;;;;15.10;9.90;;;7.40;99.90;;;;;;5071894;28;20025;-79
2022/12/09 05:58:44;;;;;;;16.35;10.05;;;7.30;99.90;;;;;;5071625;28;20020;-79
2022/12/09 06:01:11;;;;;;;16.67;10.65;;;7.20;99.90;;;;;;5071783;28;20017;-79
2022/12/09 06:03:37;;;;;;;16.38;9.73;;;7.30;99.90;;;;;;5073313;28;20059;-79
2022/12/09 06:06:08;;;;;;;14.88;9.10;;;7.30;99.90;;;;;;5071581;28;20505;-80
2022/12/09 06:08:35;;;;;;;14.52;9.27;;;7.20;99.90;;;;;;5071632;28;20025;-79
2022/12/09 06:11:01;;;;;;;16.02;9.77;;;7.20;99.90;;;;;;5071531;28;20107;-79
2022/12/09 06:13:27;;;;;;;15.38;9.55;;;7.10;99.90;;;;;;5073656;28;20147;-79
2022/12/09 06:15:53;;;;;;;18.42;11.23;;;7.10;99.90;;;;;;5071065;28;20032;-80
2022/12/09 06:18:19;;;;;;;15.80;10.32;;;7.10;99.90;;;;;;5071086;28;20537;-80
2022/12/09 06:20:44;;;;;;;17.98;10.38;;;7.10;99.90;;;;;;5070029;28;20517;-79
2022/12/09 06:23:10;;;;;;;18.73;11.23;;;7.00;99.90;;;;;;5071533;28;20052;-79
2022/12/09 06:25:36;;;;;;;16.58;10.93;;;7.00;99.90;;;;;;5070798;28;20509;-79
2022/12/09 06:28:02;;;;;;;17.45;11.32;;;7.10;99.90;;;;;;5070351;28;20545;-80
2022/12/09 06:30:28;;;;;;;17.15;10.80;;;7.30;99.90;;;;;;5070431;28;20036;-79
2022/12/09 06:32:54;;;;;;;16.73;11.05;;;7.10;99.90;;;;;;5076407;28;20038;-79
2022/12/09 06:35:19;;;;;;;17.85;11.60;;;7.10;99.90;;;;;;5071009;28;20020;-79
2022/12/09 06:37:45;;;;;;;17.65;10.95;;;7.10;99.90;;;;;;5071137;28;20485;-79
2022/12/09 06:40:11;;;;;;;16.58;10.85;;;7.10;99.90;;;;;;5071062;28;20043;-80
2022/12/09 06:42:37;;;;;;;17.67;10.95;;;7.20;99.90;;;;;;5074900;28;20399;-80
2022/12/09 06:45:03;;;;;;;21.77;11.73;;;7.20;99.90;;;;;;5070919;28;20096;-80
2022/12/09 06:47:28;;;;;;;17.65;11.57;;;7.10;99.90;;;;;;5074841;28;20028;-80
2022/12/09 06:49:56;;;;;;;18.77;11.00;;;7.10;99.90;;;;;;5081585;28;20493;-80
2022/12/09 06:52:22;;;;;;;20.30;11.98;;;7.20;99.90;;;;;;5069235;28;20466;-80
2022/12/09 06:54:48;;;;;;;19.05;11.40;;;7.20;99.90;;;;;;5069671;28;20061;-80
2022/12/09 06:57:13;;;;;;;25.17;12.27;;;7.10;99.90;;;;;;5068984;28;20666;-80
2022/12/09 06:59:39;;;;;;;18.27;11.05;;;7.10;99.90;;;;;;5068989;28;20104;-80
2022/12/09 07:02:06;;;;;;;18.90;11.80;;;7.10;99.90;;;;;;5069373;28;20025;-80
2022/12/09 07:04:31;;;;;;;26.23;12.80;;;7.10;99.90;;;;;;5070738;28;20115;-80
2022/12/09 07:06:57;;;;;;;18.83;12.32;;;6.90;99.90;;;;;;5070338;28;20096;-80
2022/12/09 07:09:23;;;;;;;21.58;12.05;;;7.00;99.90;;;;;;5057343;28;20025;-80
2022/12/09 07:11:49;;;;;;;21.98;11.88;;;7.00;99.90;;;;;;5069335;28;20138;-80
2022/12/09 07:14:16;;;;;;;17.88;11.00;;;7.00;99.90;;;;;;5070534;28;20055;-80
2022/12/09 07:16:43;;;;;;;18.55;11.30;;;6.90;99.90;;;;;;5070459;28;20024;-80
2022/12/09 07:19:21;;;;;;;19.30;11.23;;;7.00;99.90;;;;;;5069444;28;20024;-80
2022/12/09 07:21:47;;;;;;;19.88;11.13;;;7.10;99.90;;;;;;5070760;28;20157;-80
2022/12/09 07:24:14;;;;;;;18.85;10.68;;;7.10;99.90;;;;;;5070421;28;20108;-80
2022/12/09 07:26:39;;;;;;;21.77;11.23;;;7.00;99.90;;;;;;5070458;28;20043;-80
2022/12/09 07:29:06;;;;;;;19.80;11.10;;;6.90;99.90;;;;;;5071202;28;20025;-80
2022/12/09 07:31:33;;;;;;;24.08;11.73;;;7.00;99.90;;;;;;5070211;28;20524;-80
2022/12/09 07:33:59;;;;;;;20.48;11.45;;;6.90;99.90;;;;;;5070457;28;20035;-80
2022/12/09 07:36:27;;;;;;;30.88;16.52;;;6.80;99.90;;;;;;5068952;28;20029;-80
2022/12/09 07:38:57;;;;;;;29.63;17.27;;;6.90;99.90;;;;;;5075319;28;20533;-80
2022/12/09 07:41:23;;;;;;;30.67;17.85;;;6.80;99.90;;;;;;5080395;28;20116;-80
2022/12/09 07:43:49;;;;;;;27.98;16.65;;;6.80;99.90;;;;;;5079215;28;20104;-80
2022/12/09 07:46:16;;;;;;;35.78;19.17;;;6.80;99.90;;;;;;5072735;28;20112;-80
2022/12/09 07:48:42;;;;;;;33.72;17.35;;;6.70;99.90;;;;;;5072893;28;20501;-80
2022/12/09 07:51:08;;;;;;;29.48;16.58;;;6.80;99.90;;;;;;5074115;28;20029;-80
2022/12/09 07:53:35;;;;;;;27.52;15.95;;;7.00;99.90;;;;;;5074084;28;20020;-80
2022/12/09 07:56:10;;;;;;;29.33;15.68;;;7.00;99.90;;;;;;5073986;28;20055;-80
2022/12/09 07:58:37;;;;;;;25.38;14.73;;;7.00;99.90;;;;;;5074195;28;20077;-79
2022/12/09 08:01:14;;;;;;;24.40;14.98;;;7.10;99.90;;;;;;5073455;28;20024;-80
2022/12/09 08:03:41;;;;;;;20.88;14.30;;;7.10;99.90;;;;;;5072671;28;20025;-80
2022/12/09 08:06:09;;;;;;;26.70;15.10;;;7.00;99.90;;;;;;5073513;28;20032;-80
2022/12/09 08:08:35;;;;;;;25.58;13.65;;;7.00;99.90;;;;;;5062695;28;20074;-80
2022/12/09 08:11:19;;;;;;;26.80;15.27;;;7.00;99.90;;;;;;5073870;28;20033;-80
2022/12/09 08:13:45;;;;;;;27.73;16.13;;;7.00;99.90;;;;;;5069767;28;20055;-81
2022/12/09 08:16:13;;;;;;;28.73;17.17;;;7.10;99.90;;;;;;5069696;28;20024;-79
2022/12/09 08:18:39;;;;;;;26.92;15.63;;;7.00;99.90;;;;;;5069985;28;20024;-79
2022/12/09 08:21:10;;;;;;;27.50;14.73;;;7.00;99.90;;;;;;5070270;28;20033;-80
2022/12/09 08:23:36;;;;;;;22.30;13.52;;;7.10;99.90;;;;;;5072851;28;20040;-79
2022/12/09 08:26:03;;;;;;;25.05;13.50;;;7.20;99.90;;;;;;5073544;28;20091;-79
2022/12/09 08:28:29;;;;;;;25.25;13.95;;;7.20;99.90;;;;;;5077535;28;20492;-79
2022/12/09 08:30:55;;;;;;;29.40;15.80;;;7.10;99.90;;;;;;5079818;28;20029;-79
2022/12/09 08:33:21;;;;;;;26.42;14.73;;;7.00;99.90;;;;;;5068077;28;20031;-79
2022/12/09 08:35:47;;;;;;;24.23;14.55;;;7.10;99.90;;;;;;5072867;28;20444;-79
2022/12/09 08:38:13;;;;;;;26.45;14.95;;;7.10;99.90;;;;;;5072763;28;20016;-79
2022/12/09 08:40:39;;;;;;;27.05;15.45;;;7.00;99.90;;;;;;5072785;28;20028;-79
2022/12/09 08:43:08;;;;;;;28.77;15.93;;;6.90;99.90;;;;;;5074583;28;20090;-79
2022/12/09 08:45:39;;;;;;;26.88;14.23;;;7.00;99.90;;;;;;5079373;28;20028;-79
2022/12/09 08:48:06;;;;;;;26.25;14.55;;;7.00;99.90;;;;;;5087933;28;20028;-79
2022/12/09 08:50:33;;;;;;;24.38;14.10;;;7.00;99.90;;;;;;5072887;28;20025;-79
2022/12/09 08:52:59;;;;;;;24.23;13.68;;;7.00;99.90;;;;;;5070866;28;20028;-79
2022/12/09 08:55:25;;;;;;;26.08;13.95;;;7.00;99.90;;;;;;5072115;28;20028;-79
2022/12/09 08:57:51;;;;;;;25.48;14.23;;;7.00;99.90;;;;;;5072438;28;20028;-79
2022/12/09 09:00:18;;;;;;;23.08;12.85;;;7.10;99.90;;;;;;5071438;28;20020;-79
2022/12/09 09:02:44;;;;;;;23.00;13.02;;;7.10;99.90;;;;;;5069855;28;20502;-79
2022/12/09 09:05:09;;;;;;;22.00;13.73;;;7.10;99.90;;;;;;5070810;28;20031;-79
2022/12/09 09:07:36;;;;;;;24.77;13.38;;;7.20;99.90;;;;;;5066318;28;20525;-79
2022/12/09 09:10:02;;;;;;;23.15;13.77;;;7.10;99.90;;;;;;5067761;28;20095;-79
2022/12/09 09:12:29;;;;;;;23.48;12.88;;;7.10;99.90;;;;;;5072025;28;20036;-80
2022/12/09 09:14:54;;;;;;;25.02;14.13;;;7.20;99.90;;;;;;5071999;28;20040;-80
2022/12/09 09:17:21;;;;;;;22.73;13.48;;;7.20;99.90;;;;;;5072204;28;20099;-80
2022/12/09 09:19:47;;;;;;;27.08;14.93;;;7.20;99.90;;;;;;5071934;28;20581;-79
2022/12/09 09:22:12;;;;;;;26.15;13.90;;;7.10;99.90;;;;;;5079777;28;20116;-79
2022/12/09 09:24:38;;;;;;;31.52;16.85;;;7.20;99.90;;;;;;5076760;28;20111;-79
2022/12/09 09:27:04;;;;;;;25.60;14.50;;;7.30;99.90;;;;;;5070435;28;20074;-80
2022/12/09 09:29:30;;;;;;;26.98;14.68;;;7.30;99.90;;;;;;5071214;28;20021;-81
2022/12/09 09:31:56;;;;;;;24.38;15.00;;;7.30;99.90;;;;;;5073819;28;20475;-81
2022/12/09 09:34:22;;;;;;;22.48;13.38;;;7.40;99.90;;;;;;5070323;28;20028;-81
2022/12/09 09:36:49;;;;;;;25.40;14.77;;;7.50;99.90;;;;;;5071475;28;20071;-81
2022/12/09 09:39:16;;;;;;;26.70;15.52;;;7.50;99.90;;;;;;5078747;28;20493;-81
2022/12/09 09:41:49;;;;;;;27.70;15.57;;;7.40;99.90;;;;;;5071772;28;20031;-81
2022/12/09 09:44:21;;;;;;;24.92;14.35;;;7.40;99.90;;;;;;5074656;28;20024;-81
2022/12/09 09:46:48;;;;;;;24.85;14.48;;;7.60;99.90;;;;;;5070814;28;20037;-80
2022/12/09 09:49:38;;;;;;;25.55;14.23;;;7.60;99.90;;;;;;5071531;28;20078;-81
2022/12/09 09:52:10;;;;;;;26.35;15.32;;;7.60;99.90;;;;;;5071895;28;20055;-80
2022/12/09 09:54:36;;;;;;;25.00;14.43;;;7.50;99.90;;;;;;5071587;28;20024;-80
2022/12/09 09:57:10;;;;;;;26.00;15.98;;;7.60;99.90;;;;;;5070584;28;20020;-80
2022/12/09 09:59:48;;;;;;;27.73;16.50;;;7.70;99.90;;;;;;5072653;28;20212;-80
2022/12/09 10:02:31;;;;;;;23.40;14.20;;;7.70;99.90;;;;;;5070895;28;20513;-80
2022/12/09 10:05:06;;;;;;;24.02;14.70;;;7.90;99.90;;;;;;5071565;28;20028;-79
2022/12/09 10:07:39;;;;;;;30.08;16.83;;;7.80;99.90;;;;;;5069842;28;20077;-80
2022/12/09 10:10:32;;;;;;;35.45;20.48;;;7.90;99.90;;;;;;5070703;28;20025;-80
2022/12/09 10:13:24;;;;;;;42.17;24.63;;;7.80;99.90;;;;;;5070796;28;20032;-79
2022/12/09 10:16:13;;;;;;;45.22;26.40;;;7.90;99.90;;;;;;5069451;28;20082;-79
2022/12/09 10:18:54;;;;;;;38.35;22.77;;;7.80;99.90;;;;;;5069599;28;20123;-79
2022/12/09 10:21:20;;;;;;;37.72;21.80;;;7.80;99.90;;;;;;5070666;28;20090;-79
2022/12/09 10:23:48;;;;;;;37.03;20.88;;;7.90;99.90;;;;;;5072118;28;20043;-79
2022/12/09 10:26:40;;;;;;;34.47;22.35;;;7.90;99.90;;;;;;5075260;28;20048;-79
2022/12/09 10:29:11;;;;;;;28.98;18.50;;;7.90;99.90;;;;;;5067839;28;20079;-79
2022/12/09 10:31:36;;;;;;;28.98;18.27;;;8.00;99.90;;;;;;5069546;28;20505;-79
2022/12/09 10:34:02;;;;;;;25.20;16.02;;;8.00;99.90;;;;;;5074333;28;20024;-79
2022/12/09 10:36:30;;;;;;;26.08;16.67;;;8.10;99.90;;;;;;5070032;28;20374;-79
2022/12/09 10:38:55;;;;;;;26.55;16.08;;;8.10;99.90;;;;;;5070082;28;20028;-80
2022/12/09 10:44:32;;;;;;;26.98;15.95;;;8.10;99.90;;;;;;5069295;28;20074;-80
2022/12/09 10:47:18;;;;;;;26.92;15.93;;;8.20;99.90;;;;;;5069841;28;20119;-79
2022/12/09 10:49:47;;;;;;;28.05;16.63;;;8.40;99.90;;;;;;5059413;28;20032;-79
2022/12/09 10:52:24;;;;;;;25.73;16.17;;;8.30;99.90;;;;;;5068594;28;20525;-79
2022/12/09 10:54:50;;;;;;;26.98;17.30;;;8.40;99.90;;;;;;5069529;28;20039;-79
2022/12/09 10:57:15;;;;;;;24.13;17.20;;;8.40;99.90;;;;;;5068870;28;20413;-79
2022/12/09 11:00:14;;;;;;;25.88;16.48;;;8.40;99.90;;;;;;5070173;28;20047;-79
2022/12/09 11:02:52;;;;;;;25.70;17.15;;;8.40;99.90;;;;;;5043205;28;20112;-79
2022/12/09 11:05:22;;;;;;;27.80;16.38;;;8.40;99.90;;;;;;5070410;28;20049;-79
2022/12/09 11:07:50;;;;;;;22.43;15.20;;;8.40;99.90;;;;;;5072288;28;20105;-79
2022/12/09 11:10:19;;;;;;;24.92;16.05;;;8.60;99.90;;;;;;5069951;28;20277;-79
2022/12/09 11:12:45;;;;;;;25.55;16.48;;;8.70;99.90;;;;;;5069890;28;20024;-79
2022/12/09 11:15:11;;;;;;;30.63;18.88;;;8.80;99.90;;;;;;5077330;28;20037;-79
2022/12/09 11:17:41;;;;;;;30.15;18.67;;;8.80;99.90;;;;;;5072090;28;20525;-79
2022/12/09 11:20:10;;;;;;;27.23;17.55;;;8.80;99.90;;;;;;5074021;28;20111;-80
2022/12/09 11:22:41;;;;;;;28.80;16.38;;;8.90;99.90;;;;;;5072839;28;20052;-78
2022/12/09 11:25:10;;;;;;;29.50;17.50;;;9.00;99.90;;;;;;5073382;28;20102;-78
2022/12/09 11:27:38;;;;;;;24.70;15.57;;;9.00;99.90;;;;;;5072317;28;20556;-79
2022/12/09 11:30:16;;;;;;;24.25;15.45;;;9.00;99.90;;;;;;5073578;28;20079;-79
2022/12/09 11:32:58;;;;;;;24.27;14.55;;;9.10;99.90;;;;;;5073556;28;20170;-79
2022/12/09 11:35:38;;;;;;;21.02;13.88;;;9.10;99.90;;;;;;5073566;28;20052;-78
2022/12/09 11:38:17;;;;;;;21.35;13.95;;;9.10;99.90;;;;;;5072823;28;20313;-78
2022/12/09 11:40:56;;;;;;;20.15;13.20;;;9.10;99.90;;;;;;5073371;28;20505;-78
2022/12/09 11:43:40;;;;;;;19.83;12.85;;;9.10;99.90;;;;;;5074591;28;20039;-78
2022/12/09 11:46:26;;;;;;;20.08;12.55;;;9.10;99.90;;;;;;5071455;28;20017;-78
2022/12/09 11:48:52;;;;;;;20.50;11.77;;;9.20;99.90;;;;;;5077160;28;20237;-78
2022/12/09 11:51:34;;;;;;;19.35;12.40;;;9.20;99.90;;;;;;5073912;28;20540;-78
2022/12/09 11:54:12;;;;;;;19.40;13.00;;;9.30;99.90;;;;;;5073252;28;20028;-77
2022/12/09 11:56:39;;;;;;;18.98;12.30;;;9.30;99.90;;;;;;5064457;28;20115;-78
2022/12/09 11:59:16;;;;;;;18.63;12.57;;;9.30;99.90;;;;;;5071761;28;20528;-78
2022/12/09 12:01:45;;;;;;;15.80;11.82;;;9.50;99.90;;;;;;5071405;28;20035;-78
2022/12/09 12:04:15;;;;;;;18.52;12.05;;;9.60;99.90;;;;;;5059390;28;20020;-78
2022/12/09 12:07:02;;;;;;;15.40;10.60;;;9.70;99.90;;;;;;5072644;28;20054;-78
2022/12/09 12:09:46;;;;;;;16.25;11.15;;;9.70;99.90;;;;;;5070801;28;20071;-78
2022/12/09 12:12:42;;;;;;;18.30;11.95;;;9.80;99.90;;;;;;5072775;28;20021;-78
2022/12/09 12:15:28;;;;;;;16.17;10.80;;;9.80;99.90;;;;;;5073491;28;20166;-78
2022/12/09 12:17:55;;;;;;;16.63;11.05;;;9.80;99.90;;;;;;5072061;28;20051;-78
2022/12/09 12:20:43;;;;;;;17.40;11.75;;;9.90;99.90;;;;;;5072940;28;20075;-78
2022/12/09 12:23:36;;;;;;;17.38;11.65;;;10.00;99.90;;;;;;5072649;28;20107;-78
2022/12/09 12:26:17;;;;;;;17.85;12.40;;;10.00;99.90;;;;;;5072367;28;20052;-78
2022/12/09 12:28:49;;;;;;;16.67;10.68;;;10.00;99.90;;;;;;5072905;28;20024;-78
2022/12/09 12:31:17;;;;;;;13.25;10.30;;;10.10;99.90;;;;;;5073732;28;20032;-78
2022/12/09 12:34:04;;;;;;;17.30;11.02;;;10.10;99.90;;;;;;5069853;28;20501;-78
2022/12/09 12:36:51;;;;;;;14.40;10.18;;;10.00;99.90;;;;;;5069543;28;20523;-78
2022/12/09 12:39:23;;;;;;;14.65;9.95;;;10.00;99.90;;;;;;5071979;28;20040;-79
2022/12/09 12:42:04;;;;;;;14.13;10.18;;;10.10;99.90;;;;;;5088359;28;20061;-78
2022/12/09 12:47:39;;;;;;;15.20;10.23;;;10.10;99.90;;;;;;5071838;28;20274;-79
2022/12/09 12:50:22;;;;;;;13.60;10.00;;;10.20;99.90;;;;;;5062700;28;20101;-79
2022/12/09 12:53:27;;;;;;;16.30;10.25;;;10.30;99.90;;;;;;5073096;28;20047;-78
2022/12/09 12:56:06;;;;;;;14.43;9.30;;;10.30;99.90;;;;;;5078352;28;20032;-79
2022/12/09 12:58:35;;;;;;;12.55;9.30;;;10.30;99.90;;;;;;5087198;28;20112;-80
2022/12/09 13:01:30;;;;;;;12.98;10.15;;;10.40;99.90;;;;;;5071548;28;20032;-79